sensor_id;sensor_type;location;lat;lon;timestamp;P1;durP1;ratioP1;P2;durP2;ratioP2
75189;SDS011;69198;44.694;37.790;2023-04-15T00:00:08;13.10;;;3.50;;
75189;SDS011;69198;44.694;37.790;2023-04-15T00:01:16;12.75;;;3.20;;
75189;SDS011;69198;44.694;37.790;2023-04-15T00:02:18;9.63;;;2.53;;
75189;SDS011;69198;44.694;37.790;2023-04-15T00:03:19;11.52;;;2.50;;
75189;SDS011;69198;44.694;37.790;2023-04-15T00:04:20;13.32;;;2.90;;
75189;SDS011;69198;44.694;37.790;2023-04-15T00:05:21;11.68;;;2.97;;
75189;SDS011;69198;44.694;37.790;2023-04-15T00:06:22;11.23;;;2.85;;
75189;SDS011;69198;44.694;37.790;2023-04-15T00:07:24;11.95;;;2.90;;
75189;SDS011;69198;44.694;37.790;2023-04-15T00:08:25;12.52;;;3.10;;
75189;SDS011;69198;44.694;37.790;2023-04-15T00:09:26;11.32;;;2.90;;
75189;SDS011;69198;44.694;37.790;2023-04-15T00:10:27;13.00;;;3.07;;
75189;SDS011;69198;44.694;37.790;2023-04-15T00:11:28;11.02;;;3.15;;
75189;SDS011;69198;44.694;37.790;2023-04-15T00:12:29;10.85;;;3.00;;
75189;SDS011;69198;44.694;37.790;2023-04-15T00:13:30;12.13;;;2.58;;
75189;SDS011;69198;44.694;37.790;2023-04-15T00:14:35;12.98;;;2.80;;
75189;SDS011;69198;44.694;37.790;2023-04-15T00:15:36;12.27;;;2.88;;
75189;SDS011;69198;44.694;37.790;2023-04-15T00:16:37;7.47;;;2.38;;
75189;SDS011;69198;44.694;37.790;2023-04-15T00:17:38;12.52;;;3.22;;
75189;SDS011;69198;44.694;37.790;2023-04-15T00:18:39;10.17;;;2.53;;
75189;SDS011;69198;44.694;37.790;2023-04-15T00:19:40;11.85;;;3.08;;
75189;SDS011;69198;44.694;37.790;2023-04-15T00:20:42;11.57;;;2.95;;
75189;SDS011;69198;44.694;37.790;2023-04-15T00:21:42;9.18;;;3.10;;
75189;SDS011;69198;44.694;37.790;2023-04-15T00:22:43;11.07;;;2.88;;
75189;SDS011;69198;44.694;37.790;2023-04-15T00:23:45;11.30;;;2.75;;
75189;SDS011;69198;44.694;37.790;2023-04-15T00:24:52;12.65;;;3.25;;
75189;SDS011;69198;44.694;37.790;2023-04-15T00:25:53;11.32;;;2.65;;
75189;SDS011;69198;44.694;37.790;2023-04-15T00:26:54;10.97;;;3.13;;
75189;SDS011;69198;44.694;37.790;2023-04-15T00:27:56;10.35;;;2.80;;
75189;SDS011;69198;44.694;37.790;2023-04-15T00:28:57;10.38;;;2.63;;
75189;SDS011;69198;44.694;37.790;2023-04-15T00:29:58;11.70;;;2.58;;
75189;SDS011;69198;44.694;37.790;2023-04-15T00:30:59;8.60;;;2.33;;
75189;SDS011;69198;44.694;37.790;2023-04-15T00:32:00;11.25;;;2.70;;
75189;SDS011;69198;44.694;37.790;2023-04-15T00:33:02;8.68;;;2.80;;
75189;SDS011;69198;44.694;37.790;2023-04-15T00:34:03;6.97;;;1.80;;
75189;SDS011;69198;44.694;37.790;2023-04-15T00:35:04;8.73;;;2.10;;
75189;SDS011;69198;44.694;37.790;2023-04-15T00:36:05;8.95;;;2.60;;
75189;SDS011;69198;44.694;37.790;2023-04-15T00:37:08;9.05;;;2.50;;
75189;SDS011;69198;44.694;37.790;2023-04-15T00:38:10;9.48;;;2.40;;
75189;SDS011;69198;44.694;37.790;2023-04-15T00:39:11;10.98;;;2.90;;
75189;SDS011;69198;44.694;37.790;2023-04-15T00:40:12;12.77;;;2.60;;
75189;SDS011;69198;44.694;37.790;2023-04-15T00:41:13;10.35;;;2.95;;
75189;SDS011;69198;44.694;37.790;2023-04-15T00:42:14;10.13;;;2.77;;
75189;SDS011;69198;44.694;37.790;2023-04-15T00:43:15;10.30;;;2.75;;
75189;SDS011;69198;44.694;37.790;2023-04-15T00:44:17;10.43;;;2.70;;
75189;SDS011;69198;44.694;37.790;2023-04-15T00:45:19;8.95;;;2.40;;
75189;SDS011;69198;44.694;37.790;2023-04-15T00:46:20;9.10;;;2.30;;
75189;SDS011;69198;44.694;37.790;2023-04-15T00:47:22;9.50;;;2.28;;
75189;SDS011;69198;44.694;37.790;2023-04-15T00:48:23;10.10;;;2.83;;
75189;SDS011;69198;44.694;37.790;2023-04-15T00:49:27;8.77;;;2.38;;
75189;SDS011;69198;44.694;37.790;2023-04-15T00:50:29;9.27;;;2.63;;
75189;SDS011;69198;44.694;37.790;2023-04-15T00:51:29;9.60;;;2.30;;
75189;SDS011;69198;44.694;37.790;2023-04-15T00:52:32;8.60;;;2.42;;
75189;SDS011;69198;44.694;37.790;2023-04-15T00:53:34;8.93;;;2.13;;
75189;SDS011;69198;44.694;37.790;2023-04-15T00:54:35;10.73;;;2.53;;
75189;SDS011;69198;44.694;37.790;2023-04-15T00:55:37;8.55;;;2.13;;
75189;SDS011;69198;44.694;37.790;2023-04-15T00:56:38;10.32;;;3.05;;
75189;SDS011;69198;44.694;37.790;2023-04-15T00:57:39;9.77;;;2.42;;
75189;SDS011;69198;44.694;37.790;2023-04-15T00:58:41;10.90;;;2.47;;
75189;SDS011;69198;44.694;37.790;2023-04-15T00:59:42;7.68;;;2.35;;
75189;SDS011;69198;44.694;37.790;2023-04-15T01:00:43;8.95;;;2.67;;
75189;SDS011;69198;44.694;37.790;2023-04-15T01:01:44;8.93;;;2.40;;
75189;SDS011;69198;44.694;37.790;2023-04-15T01:02:46;12.43;;;2.45;;
75189;SDS011;69198;44.694;37.790;2023-04-15T01:03:48;8.85;;;2.60;;
75189;SDS011;69198;44.694;37.790;2023-04-15T01:04:51;9.25;;;2.47;;
75189;SDS011;69198;44.694;37.790;2023-04-15T01:05:52;10.00;;;2.55;;
75189;SDS011;69198;44.694;37.790;2023-04-15T01:06:57;7.28;;;2.05;;
75189;SDS011;69198;44.694;37.790;2023-04-15T01:07:58;9.15;;;2.60;;
75189;SDS011;69198;44.694;37.790;2023-04-15T01:08:59;8.27;;;2.30;;
75189;SDS011;69198;44.694;37.790;2023-04-15T01:10:02;10.00;;;2.60;;
75189;SDS011;69198;44.694;37.790;2023-04-15T01:11:03;10.93;;;2.40;;
75189;SDS011;69198;44.694;37.790;2023-04-15T01:12:05;7.30;;;2.00;;
75189;SDS011;69198;44.694;37.790;2023-04-15T01:13:08;7.68;;;2.40;;
75189;SDS011;69198;44.694;37.790;2023-04-15T01:14:09;11.70;;;2.58;;
75189;SDS011;69198;44.694;37.790;2023-04-15T01:15:10;11.05;;;2.78;;
75189;SDS011;69198;44.694;37.790;2023-04-15T01:16:12;10.90;;;2.83;;
75189;SDS011;69198;44.694;37.790;2023-04-15T01:17:13;8.00;;;2.58;;
75189;SDS011;69198;44.694;37.790;2023-04-15T01:18:14;11.93;;;2.50;;
75189;SDS011;69198;44.694;37.790;2023-04-15T01:19:16;11.57;;;2.35;;
75189;SDS011;69198;44.694;37.790;2023-04-15T01:20:17;8.88;;;2.33;;
75189;SDS011;69198;44.694;37.790;2023-04-15T01:21:19;6.87;;;2.30;;
75189;SDS011;69198;44.694;37.790;2023-04-15T01:22:21;10.82;;;2.45;;
75189;SDS011;69198;44.694;37.790;2023-04-15T01:23:23;11.43;;;2.25;;
75189;SDS011;69198;44.694;37.790;2023-04-15T01:24:25;7.80;;;2.60;;
75189;SDS011;69198;44.694;37.790;2023-04-15T01:25:31;10.25;;;2.60;;
75189;SDS011;69198;44.694;37.790;2023-04-15T01:26:33;11.38;;;3.13;;
75189;SDS011;69198;44.694;37.790;2023-04-15T01:27:35;10.18;;;3.00;;
75189;SDS011;69198;44.694;37.790;2023-04-15T01:28:39;7.97;;;2.40;;
75189;SDS011;69198;44.694;37.790;2023-04-15T01:29:40;8.75;;;2.67;;
75189;SDS011;69198;44.694;37.790;2023-04-15T01:30:42;9.77;;;2.37;;
75189;SDS011;69198;44.694;37.790;2023-04-15T01:31:53;9.68;;;2.55;;
75189;SDS011;69198;44.694;37.790;2023-04-15T01:33:14;8.15;;;2.60;;
75189;SDS011;69198;44.694;37.790;2023-04-15T01:34:33;12.40;;;2.30;;
75189;SDS011;69198;44.694;37.790;2023-04-15T01:35:53;9.57;;;2.60;;
75189;SDS011;69198;44.694;37.790;2023-04-15T01:36:58;9.85;;;2.10;;
75189;SDS011;69198;44.694;37.790;2023-04-15T01:38:03;10.00;;;2.50;;
75189;SDS011;69198;44.694;37.790;2023-04-15T01:39:06;10.90;;;2.58;;
75189;SDS011;69198;44.694;37.790;2023-04-15T01:40:08;8.40;;;2.67;;
75189;SDS011;69198;44.694;37.790;2023-04-15T01:41:12;8.57;;;2.80;;
75189;SDS011;69198;44.694;37.790;2023-04-15T01:42:14;8.80;;;2.50;;
75189;SDS011;69198;44.694;37.790;2023-04-15T01:43:17;10.85;;;2.50;;
75189;SDS011;69198;44.694;37.790;2023-04-15T01:44:19;9.32;;;2.70;;
75189;SDS011;69198;44.694;37.790;2023-04-15T01:45:22;9.65;;;2.70;;
75189;SDS011;69198;44.694;37.790;2023-04-15T01:46:24;9.85;;;2.45;;
75189;SDS011;69198;44.694;37.790;2023-04-15T01:47:28;11.30;;;2.55;;
75189;SDS011;69198;44.694;37.790;2023-04-15T01:48:31;9.88;;;2.38;;
75189;SDS011;69198;44.694;37.790;2023-04-15T01:49:33;8.93;;;2.53;;
75189;SDS011;69198;44.694;37.790;2023-04-15T01:50:36;7.75;;;2.30;;
75189;SDS011;69198;44.694;37.790;2023-04-15T01:51:39;11.73;;;2.50;;
75189;SDS011;69198;44.694;37.790;2023-04-15T01:52:41;7.57;;;2.10;;
75189;SDS011;69198;44.694;37.790;2023-04-15T01:53:43;8.40;;;2.45;;
75189;SDS011;69198;44.694;37.790;2023-04-15T01:54:46;10.25;;;2.70;;
75189;SDS011;69198;44.694;37.790;2023-04-15T01:55:48;10.63;;;2.60;;
75189;SDS011;69198;44.694;37.790;2023-04-15T01:56:50;9.68;;;3.05;;
75189;SDS011;69198;44.694;37.790;2023-04-15T01:57:53;9.10;;;2.53;;
75189;SDS011;69198;44.694;37.790;2023-04-15T01:58:56;9.77;;;2.42;;
75189;SDS011;69198;44.694;37.790;2023-04-15T01:59:58;8.82;;;2.40;;
75189;SDS011;69198;44.694;37.790;2023-04-15T02:01:00;9.35;;;2.42;;
75189;SDS011;69198;44.694;37.790;2023-04-15T02:02:06;8.52;;;2.35;;
75189;SDS011;69198;44.694;37.790;2023-04-15T02:03:08;8.40;;;2.60;;
75189;SDS011;69198;44.694;37.790;2023-04-15T02:04:10;11.85;;;2.58;;
75189;SDS011;69198;44.694;37.790;2023-04-15T02:05:17;9.07;;;2.30;;
75189;SDS011;69198;44.694;37.790;2023-04-15T02:06:22;9.43;;;2.40;;
75189;SDS011;69198;44.694;37.790;2023-04-15T02:07:25;8.77;;;2.88;;
75189;SDS011;69198;44.694;37.790;2023-04-15T02:08:27;10.65;;;2.55;;
75189;SDS011;69198;44.694;37.790;2023-04-15T02:09:29;10.57;;;2.53;;
75189;SDS011;69198;44.694;37.790;2023-04-15T02:10:31;7.95;;;2.47;;
75189;SDS011;69198;44.694;37.790;2023-04-15T02:11:34;10.60;;;2.67;;
75189;SDS011;69198;44.694;37.790;2023-04-15T02:12:39;6.93;;;2.03;;
75189;SDS011;69198;44.694;37.790;2023-04-15T02:13:44;8.13;;;2.23;;
75189;SDS011;69198;44.694;37.790;2023-04-15T02:14:46;10.25;;;2.20;;
75189;SDS011;69198;44.694;37.790;2023-04-15T02:15:50;9.35;;;2.35;;
75189;SDS011;69198;44.694;37.790;2023-04-15T02:16:54;9.75;;;2.47;;
75189;SDS011;69198;44.694;37.790;2023-04-15T02:17:56;9.43;;;2.45;;
75189;SDS011;69198;44.694;37.790;2023-04-15T02:18:59;11.57;;;2.80;;
75189;SDS011;69198;44.694;37.790;2023-04-15T02:20:02;7.75;;;2.20;;
75189;SDS011;69198;44.694;37.790;2023-04-15T02:21:09;8.02;;;2.38;;
75189;SDS011;69198;44.694;37.790;2023-04-15T02:22:13;8.00;;;2.17;;
75189;SDS011;69198;44.694;37.790;2023-04-15T02:23:21;7.13;;;2.10;;
75189;SDS011;69198;44.694;37.790;2023-04-15T02:24:23;8.17;;;2.40;;
75189;SDS011;69198;44.694;37.790;2023-04-15T02:25:25;7.72;;;1.83;;
75189;SDS011;69198;44.694;37.790;2023-04-15T02:26:27;8.90;;;2.45;;
75189;SDS011;69198;44.694;37.790;2023-04-15T02:27:32;9.80;;;2.17;;
75189;SDS011;69198;44.694;37.790;2023-04-15T02:28:35;8.45;;;2.90;;
75189;SDS011;69198;44.694;37.790;2023-04-15T02:29:37;10.15;;;3.03;;
75189;SDS011;69198;44.694;37.790;2023-04-15T02:30:39;9.45;;;2.53;;
75189;SDS011;69198;44.694;37.790;2023-04-15T02:31:42;9.73;;;2.22;;
75189;SDS011;69198;44.694;37.790;2023-04-15T02:32:45;10.55;;;2.22;;
75189;SDS011;69198;44.694;37.790;2023-04-15T02:33:48;7.45;;;1.92;;
75189;SDS011;69198;44.694;37.790;2023-04-15T02:34:51;11.77;;;2.80;;
75189;SDS011;69198;44.694;37.790;2023-04-15T02:35:54;7.78;;;2.42;;
75189;SDS011;69198;44.694;37.790;2023-04-15T02:36:56;8.05;;;2.33;;
75189;SDS011;69198;44.694;37.790;2023-04-15T02:37:58;9.27;;;2.63;;
75189;SDS011;69198;44.694;37.790;2023-04-15T02:39:02;9.25;;;2.22;;
75189;SDS011;69198;44.694;37.790;2023-04-15T02:40:08;9.80;;;2.00;;
75189;SDS011;69198;44.694;37.790;2023-04-15T02:41:14;7.88;;;2.20;;
75189;SDS011;69198;44.694;37.790;2023-04-15T02:42:17;6.60;;;2.00;;
75189;SDS011;69198;44.694;37.790;2023-04-15T02:43:19;7.78;;;2.05;;
75189;SDS011;69198;44.694;37.790;2023-04-15T02:44:21;10.77;;;2.10;;
75189;SDS011;69198;44.694;37.790;2023-04-15T02:45:28;9.53;;;2.20;;
75189;SDS011;69198;44.694;37.790;2023-04-15T02:46:30;6.90;;;1.80;;
75189;SDS011;69198;44.694;37.790;2023-04-15T02:47:35;7.40;;;2.22;;
75189;SDS011;69198;44.694;37.790;2023-04-15T02:48:39;8.13;;;2.50;;
75189;SDS011;69198;44.694;37.790;2023-04-15T02:49:43;7.95;;;2.20;;
75189;SDS011;69198;44.694;37.790;2023-04-15T02:50:45;8.15;;;2.67;;
75189;SDS011;69198;44.694;37.790;2023-04-15T02:51:50;7.82;;;2.15;;
75189;SDS011;69198;44.694;37.790;2023-04-15T02:52:53;13.13;;;3.28;;
75189;SDS011;69198;44.694;37.790;2023-04-15T02:53:55;6.60;;;2.33;;
75189;SDS011;69198;44.694;37.790;2023-04-15T02:54:58;8.98;;;2.50;;
75189;SDS011;69198;44.694;37.790;2023-04-15T02:56:04;8.00;;;2.13;;
75189;SDS011;69198;44.694;37.790;2023-04-15T02:57:07;8.40;;;2.33;;
75189;SDS011;69198;44.694;37.790;2023-04-15T02:58:09;9.82;;;2.35;;
75189;SDS011;69198;44.694;37.790;2023-04-15T02:59:12;7.90;;;2.22;;
75189;SDS011;69198;44.694;37.790;2023-04-15T03:00:14;9.45;;;2.47;;
75189;SDS011;69198;44.694;37.790;2023-04-15T03:01:18;9.95;;;1.92;;
75189;SDS011;69198;44.694;37.790;2023-04-15T03:02:21;7.28;;;2.30;;
75189;SDS011;69198;44.694;37.790;2023-04-15T03:03:23;11.27;;;2.30;;
75189;SDS011;69198;44.694;37.790;2023-04-15T03:04:26;10.13;;;3.45;;
75189;SDS011;69198;44.694;37.790;2023-04-15T03:05:30;11.82;;;2.30;;
75189;SDS011;69198;44.694;37.790;2023-04-15T03:06:34;10.57;;;2.40;;
75189;SDS011;69198;44.694;37.790;2023-04-15T03:07:36;7.55;;;2.00;;
75189;SDS011;69198;44.694;37.790;2023-04-15T03:08:39;8.13;;;2.15;;
75189;SDS011;69198;44.694;37.790;2023-04-15T03:09:41;7.97;;;2.10;;
75189;SDS011;69198;44.694;37.790;2023-04-15T03:10:43;8.10;;;2.17;;
75189;SDS011;69198;44.694;37.790;2023-04-15T03:11:46;7.82;;;2.42;;
75189;SDS011;69198;44.694;37.790;2023-04-15T03:12:48;7.07;;;2.05;;
75189;SDS011;69198;44.694;37.790;2023-04-15T03:13:53;8.45;;;2.88;;
75189;SDS011;69198;44.694;37.790;2023-04-15T03:15:02;8.35;;;2.65;;
75189;SDS011;69198;44.694;37.790;2023-04-15T03:16:11;7.50;;;2.03;;
75189;SDS011;69198;44.694;37.790;2023-04-15T03:17:13;6.53;;;2.07;;
75189;SDS011;69198;44.694;37.790;2023-04-15T03:18:17;6.78;;;2.17;;
75189;SDS011;69198;44.694;37.790;2023-04-15T03:19:19;6.90;;;2.00;;
75189;SDS011;69198;44.694;37.790;2023-04-15T03:20:21;8.07;;;2.00;;
75189;SDS011;69198;44.694;37.790;2023-04-15T03:21:24;8.75;;;2.20;;
75189;SDS011;69198;44.694;37.790;2023-04-15T03:22:28;5.63;;;1.73;;
75189;SDS011;69198;44.694;37.790;2023-04-15T03:23:31;7.32;;;2.05;;
75189;SDS011;69198;44.694;37.790;2023-04-15T03:24:33;8.18;;;2.10;;
75189;SDS011;69198;44.694;37.790;2023-04-15T03:25:35;7.57;;;2.00;;
75189;SDS011;69198;44.694;37.790;2023-04-15T03:26:39;7.03;;;2.00;;
75189;SDS011;69198;44.694;37.790;2023-04-15T03:27:46;7.20;;;1.93;;
75189;SDS011;69198;44.694;37.790;2023-04-15T03:28:49;8.90;;;2.13;;
75189;SDS011;69198;44.694;37.790;2023-04-15T03:29:53;7.72;;;1.88;;
75189;SDS011;69198;44.694;37.790;2023-04-15T03:30:58;7.43;;;2.15;;
75189;SDS011;69198;44.694;37.790;2023-04-15T03:32:00;9.32;;;2.10;;
75189;SDS011;69198;44.694;37.790;2023-04-15T03:33:07;7.80;;;2.00;;
75189;SDS011;69198;44.694;37.790;2023-04-15T03:34:10;6.32;;;1.90;;
75189;SDS011;69198;44.694;37.790;2023-04-15T03:35:12;6.22;;;1.80;;
75189;SDS011;69198;44.694;37.790;2023-04-15T03:36:15;8.10;;;2.33;;
75189;SDS011;69198;44.694;37.790;2023-04-15T03:37:17;5.53;;;1.60;;
75189;SDS011;69198;44.694;37.790;2023-04-15T03:38:19;8.87;;;2.10;;
75189;SDS011;69198;44.694;37.790;2023-04-15T03:39:22;7.97;;;1.75;;
75189;SDS011;69198;44.694;37.790;2023-04-15T03:40:24;8.32;;;1.92;;
75189;SDS011;69198;44.694;37.790;2023-04-15T03:41:26;7.07;;;1.80;;
75189;SDS011;69198;44.694;37.790;2023-04-15T03:42:29;6.32;;;1.70;;
75189;SDS011;69198;44.694;37.790;2023-04-15T03:43:31;6.90;;;1.80;;
75189;SDS011;69198;44.694;37.790;2023-04-15T03:44:34;7.38;;;1.77;;
75189;SDS011;69198;44.694;37.790;2023-04-15T03:45:36;5.40;;;1.83;;
75189;SDS011;69198;44.694;37.790;2023-04-15T03:46:38;6.00;;;2.00;;
75189;SDS011;69198;44.694;37.790;2023-04-15T03:47:41;7.35;;;2.33;;
75189;SDS011;69198;44.694;37.790;2023-04-15T03:48:44;8.27;;;1.87;;
75189;SDS011;69198;44.694;37.790;2023-04-15T03:49:46;6.20;;;2.03;;
75189;SDS011;69198;44.694;37.790;2023-04-15T03:50:48;7.05;;;2.10;;
75189;SDS011;69198;44.694;37.790;2023-04-15T03:51:50;6.60;;;1.98;;
75189;SDS011;69198;44.694;37.790;2023-04-15T03:52:53;7.13;;;1.90;;
75189;SDS011;69198;44.694;37.790;2023-04-15T03:53:55;6.30;;;1.92;;
75189;SDS011;69198;44.694;37.790;2023-04-15T03:54:57;5.63;;;1.80;;
75189;SDS011;69198;44.694;37.790;2023-04-15T03:55:59;6.97;;;1.95;;
75189;SDS011;69198;44.694;37.790;2023-04-15T03:57:02;5.45;;;1.77;;
75189;SDS011;69198;44.694;37.790;2023-04-15T03:58:04;5.50;;;1.67;;
75189;SDS011;69198;44.694;37.790;2023-04-15T03:59:07;6.23;;;1.80;;
75189;SDS011;69198;44.694;37.790;2023-04-15T04:00:09;5.82;;;1.60;;
75189;SDS011;69198;44.694;37.790;2023-04-15T04:01:14;6.88;;;1.65;;
75189;SDS011;69198;44.694;37.790;2023-04-15T04:02:17;7.13;;;1.73;;
75189;SDS011;69198;44.694;37.790;2023-04-15T04:03:19;7.18;;;1.75;;
75189;SDS011;69198;44.694;37.790;2023-04-15T04:04:21;6.53;;;1.30;;
75189;SDS011;69198;44.694;37.790;2023-04-15T04:05:24;5.20;;;1.52;;
75189;SDS011;69198;44.694;37.790;2023-04-15T04:06:26;6.32;;;1.70;;
75189;SDS011;69198;44.694;37.790;2023-04-15T04:07:29;5.38;;;1.45;;
75189;SDS011;69198;44.694;37.790;2023-04-15T04:08:31;5.25;;;1.50;;
75189;SDS011;69198;44.694;37.790;2023-04-15T04:09:33;6.87;;;1.50;;
75189;SDS011;69198;44.694;37.790;2023-04-15T04:10:35;6.75;;;1.42;;
75189;SDS011;69198;44.694;37.790;2023-04-15T04:11:38;5.93;;;1.50;;
75189;SDS011;69198;44.694;37.790;2023-04-15T04:12:40;7.05;;;1.80;;
75189;SDS011;69198;44.694;37.790;2023-04-15T04:13:42;6.35;;;1.50;;
75189;SDS011;69198;44.694;37.790;2023-04-15T04:14:44;5.10;;;1.60;;
75189;SDS011;69198;44.694;37.790;2023-04-15T04:15:47;4.95;;;1.52;;
75189;SDS011;69198;44.694;37.790;2023-04-15T04:16:49;5.97;;;1.80;;
75189;SDS011;69198;44.694;37.790;2023-04-15T04:17:51;4.65;;;1.50;;
75189;SDS011;69198;44.694;37.790;2023-04-15T04:18:54;5.35;;;1.70;;
75189;SDS011;69198;44.694;37.790;2023-04-15T04:19:56;5.70;;;2.10;;
75189;SDS011;69198;44.694;37.790;2023-04-15T04:20:58;7.18;;;2.90;;
75189;SDS011;69198;44.694;37.790;2023-04-15T04:22:01;8.50;;;3.03;;
75189;SDS011;69198;44.694;37.790;2023-04-15T04:23:03;6.78;;;2.90;;
75189;SDS011;69198;44.694;37.790;2023-04-15T04:24:06;5.60;;;2.50;;
75189;SDS011;69198;44.694;37.790;2023-04-15T04:25:08;6.40;;;2.95;;
75189;SDS011;69198;44.694;37.790;2023-04-15T04:26:10;6.53;;;2.80;;
75189;SDS011;69198;44.694;37.790;2023-04-15T04:27:13;6.38;;;2.38;;
75189;SDS011;69198;44.694;37.790;2023-04-15T04:28:15;6.05;;;2.35;;
75189;SDS011;69198;44.694;37.790;2023-04-15T04:29:17;6.50;;;1.75;;
75189;SDS011;69198;44.694;37.790;2023-04-15T04:30:19;5.87;;;1.53;;
75189;SDS011;69198;44.694;37.790;2023-04-15T04:31:21;5.10;;;1.60;;
75189;SDS011;69198;44.694;37.790;2023-04-15T04:32:24;6.75;;;2.13;;
75189;SDS011;69198;44.694;37.790;2023-04-15T04:33:26;5.28;;;1.67;;
75189;SDS011;69198;44.694;37.790;2023-04-15T04:34:28;6.13;;;2.10;;
75189;SDS011;69198;44.694;37.790;2023-04-15T04:35:31;6.20;;;1.70;;
75189;SDS011;69198;44.694;37.790;2023-04-15T04:36:35;6.68;;;1.75;;
75189;SDS011;69198;44.694;37.790;2023-04-15T04:37:37;5.65;;;1.70;;
75189;SDS011;69198;44.694;37.790;2023-04-15T04:38:39;5.82;;;1.70;;
75189;SDS011;69198;44.694;37.790;2023-04-15T04:39:41;5.75;;;1.45;;
75189;SDS011;69198;44.694;37.790;2023-04-15T04:40:44;5.93;;;1.50;;
75189;SDS011;69198;44.694;37.790;2023-04-15T04:41:46;5.07;;;1.35;;
75189;SDS011;69198;44.694;37.790;2023-04-15T04:42:48;7.32;;;1.50;;
75189;SDS011;69198;44.694;37.790;2023-04-15T04:43:50;5.72;;;1.50;;
75189;SDS011;69198;44.694;37.790;2023-04-15T04:44:53;6.80;;;1.80;;
75189;SDS011;69198;44.694;37.790;2023-04-15T04:45:55;5.68;;;1.60;;
75189;SDS011;69198;44.694;37.790;2023-04-15T04:46:57;6.05;;;1.52;;
75189;SDS011;69198;44.694;37.790;2023-04-15T04:47:59;7.03;;;1.73;;
75189;SDS011;69198;44.694;37.790;2023-04-15T04:49:02;6.22;;;1.70;;
75189;SDS011;69198;44.694;37.790;2023-04-15T04:50:04;5.45;;;1.52;;
75189;SDS011;69198;44.694;37.790;2023-04-15T04:51:07;5.47;;;1.60;;
75189;SDS011;69198;44.694;37.790;2023-04-15T04:52:10;5.90;;;1.80;;
75189;SDS011;69198;44.694;37.790;2023-04-15T04:53:12;6.75;;;1.90;;
75189;SDS011;69198;44.694;37.790;2023-04-15T04:54:15;5.22;;;1.45;;
75189;SDS011;69198;44.694;37.790;2023-04-15T04:55:18;6.43;;;1.70;;
75189;SDS011;69198;44.694;37.790;2023-04-15T04:56:20;5.97;;;1.80;;
75189;SDS011;69198;44.694;37.790;2023-04-15T04:57:22;6.13;;;1.83;;
75189;SDS011;69198;44.694;37.790;2023-04-15T04:58:25;6.30;;;1.70;;
75189;SDS011;69198;44.694;37.790;2023-04-15T04:59:27;5.90;;;1.75;;
75189;SDS011;69198;44.694;37.790;2023-04-15T05:00:29;7.35;;;1.80;;
75189;SDS011;69198;44.694;37.790;2023-04-15T05:01:32;6.47;;;1.50;;
75189;SDS011;69198;44.694;37.790;2023-04-15T05:02:34;5.13;;;1.50;;
75189;SDS011;69198;44.694;37.790;2023-04-15T05:03:37;6.30;;;1.80;;
75189;SDS011;69198;44.694;37.790;2023-04-15T05:04:39;7.38;;;1.60;;
75189;SDS011;69198;44.694;37.790;2023-04-15T05:05:42;5.20;;;1.50;;
75189;SDS011;69198;44.694;37.790;2023-04-15T05:06:44;5.68;;;1.60;;
75189;SDS011;69198;44.694;37.790;2023-04-15T05:07:46;5.32;;;1.70;;
75189;SDS011;69198;44.694;37.790;2023-04-15T05:08:50;6.28;;;1.95;;
75189;SDS011;69198;44.694;37.790;2023-04-15T05:09:53;6.75;;;2.42;;
75189;SDS011;69198;44.694;37.790;2023-04-15T05:10:55;5.40;;;1.75;;
75189;SDS011;69198;44.694;37.790;2023-04-15T05:11:57;7.47;;;2.20;;
75189;SDS011;69198;44.694;37.790;2023-04-15T05:13:00;6.78;;;2.53;;
75189;SDS011;69198;44.694;37.790;2023-04-15T05:14:02;6.05;;;1.75;;
75189;SDS011;69198;44.694;37.790;2023-04-15T05:15:04;5.85;;;1.90;;
75189;SDS011;69198;44.694;37.790;2023-04-15T05:16:07;6.78;;;1.60;;
75189;SDS011;69198;44.694;37.790;2023-04-15T05:17:09;5.95;;;1.85;;
75189;SDS011;69198;44.694;37.790;2023-04-15T05:18:12;5.93;;;1.45;;
75189;SDS011;69198;44.694;37.790;2023-04-15T05:19:14;5.97;;;1.70;;
75189;SDS011;69198;44.694;37.790;2023-04-15T05:20:16;5.82;;;1.88;;
75189;SDS011;69198;44.694;37.790;2023-04-15T05:21:18;5.80;;;1.55;;
75189;SDS011;69198;44.694;37.790;2023-04-15T05:22:21;5.17;;;1.80;;
75189;SDS011;69198;44.694;37.790;2023-04-15T05:23:23;6.15;;;1.67;;
75189;SDS011;69198;44.694;37.790;2023-04-15T05:24:26;6.03;;;2.10;;
75189;SDS011;69198;44.694;37.790;2023-04-15T05:25:28;7.43;;;1.95;;
75189;SDS011;69198;44.694;37.790;2023-04-15T05:26:30;6.75;;;1.77;;
75189;SDS011;69198;44.694;37.790;2023-04-15T05:27:32;5.50;;;2.05;;
75189;SDS011;69198;44.694;37.790;2023-04-15T05:28:34;6.20;;;1.90;;
75189;SDS011;69198;44.694;37.790;2023-04-15T05:29:37;7.05;;;2.22;;
75189;SDS011;69198;44.694;37.790;2023-04-15T05:30:39;7.18;;;2.10;;
75189;SDS011;69198;44.694;37.790;2023-04-15T05:31:41;6.15;;;1.77;;
75189;SDS011;69198;44.694;37.790;2023-04-15T05:32:44;5.87;;;1.53;;
75189;SDS011;69198;44.694;37.790;2023-04-15T05:33:46;6.05;;;1.70;;
75189;SDS011;69198;44.694;37.790;2023-04-15T05:34:48;4.97;;;1.67;;
75189;SDS011;69198;44.694;37.790;2023-04-15T05:35:50;7.28;;;1.75;;
75189;SDS011;69198;44.694;37.790;2023-04-15T05:36:53;6.00;;;1.70;;
75189;SDS011;69198;44.694;37.790;2023-04-15T05:37:55;6.80;;;1.67;;
75189;SDS011;69198;44.694;37.790;2023-04-15T05:38:57;5.72;;;1.70;;
75189;SDS011;69198;44.694;37.790;2023-04-15T05:39:59;6.10;;;1.48;;
75189;SDS011;69198;44.694;37.790;2023-04-15T05:41:02;6.82;;;1.70;;
75189;SDS011;69198;44.694;37.790;2023-04-15T05:42:04;4.93;;;1.55;;
75189;SDS011;69198;44.694;37.790;2023-04-15T05:43:06;6.00;;;1.97;;
75189;SDS011;69198;44.694;37.790;2023-04-15T05:44:09;6.03;;;1.52;;
75189;SDS011;69198;44.694;37.790;2023-04-15T05:45:11;5.72;;;1.70;;
75189;SDS011;69198;44.694;37.790;2023-04-15T05:46:14;6.05;;;1.63;;
75189;SDS011;69198;44.694;37.790;2023-04-15T05:47:16;5.68;;;1.90;;
75189;SDS011;69198;44.694;37.790;2023-04-15T05:48:18;4.80;;;1.50;;
75189;SDS011;69198;44.694;37.790;2023-04-15T05:49:21;5.30;;;1.55;;
75189;SDS011;69198;44.694;37.790;2023-04-15T05:50:23;5.70;;;1.67;;
75189;SDS011;69198;44.694;37.790;2023-04-15T05:51:25;5.40;;;1.50;;
75189;SDS011;69198;44.694;37.790;2023-04-15T05:52:27;5.45;;;1.48;;
75189;SDS011;69198;44.694;37.790;2023-04-15T05:53:30;5.70;;;1.77;;
75189;SDS011;69198;44.694;37.790;2023-04-15T05:54:32;5.22;;;1.60;;
75189;SDS011;69198;44.694;37.790;2023-04-15T05:55:34;5.95;;;1.50;;
75189;SDS011;69198;44.694;37.790;2023-04-15T05:56:37;5.47;;;1.65;;
75189;SDS011;69198;44.694;37.790;2023-04-15T05:57:39;5.70;;;1.60;;
75189;SDS011;69198;44.694;37.790;2023-04-15T05:58:41;6.85;;;2.00;;
75189;SDS011;69198;44.694;37.790;2023-04-15T05:59:43;6.00;;;2.08;;
75189;SDS011;69198;44.694;37.790;2023-04-15T06:00:45;5.80;;;2.30;;
75189;SDS011;69198;44.694;37.790;2023-04-15T06:01:48;5.78;;;2.10;;
75189;SDS011;69198;44.694;37.790;2023-04-15T06:02:50;4.88;;;1.80;;
75189;SDS011;69198;44.694;37.790;2023-04-15T06:03:53;6.97;;;2.00;;
75189;SDS011;69198;44.694;37.790;2023-04-15T06:04:56;6.57;;;2.00;;
75189;SDS011;69198;44.694;37.790;2023-04-15T06:05:58;4.80;;;1.65;;
75189;SDS011;69198;44.694;37.790;2023-04-15T06:07:01;6.05;;;1.80;;
75189;SDS011;69198;44.694;37.790;2023-04-15T06:08:03;6.68;;;2.05;;
75189;SDS011;69198;44.694;37.790;2023-04-15T06:09:06;5.38;;;1.83;;
75189;SDS011;69198;44.694;37.790;2023-04-15T06:10:08;5.13;;;1.80;;